createdAt,value
2023-03-20T00:02:24.659Z,7.17
2023-03-20T00:04:52.078Z,7.80
2023-03-20T00:07:19.411Z,7.90
2023-03-20T00:09:48.020Z,6.83
2023-03-20T00:12:21.231Z,7.30
2023-03-20T00:14:48.457Z,7.00
2023-03-20T00:17:20.842Z,6.47
2023-03-20T00:19:51.587Z,7.77
2023-03-20T00:22:18.902Z,6.20
2023-03-20T00:24:46.250Z,6.80
2023-03-20T00:27:16.815Z,6.47
2023-03-20T00:29:45.194Z,6.17
2023-03-20T00:32:13.881Z,6.00
2023-03-20T00:34:41.854Z,6.10
2023-03-20T00:37:14.481Z,5.63
2023-03-20T00:39:42.327Z,6.43
2023-03-20T00:42:22.541Z,6.07
2023-03-20T00:44:55.896Z,7.70
2023-03-20T00:47:25.691Z,7.10
2023-03-20T00:49:58.518Z,7.93
2023-03-20T00:52:25.986Z,7.37
2023-03-20T00:54:53.649Z,7.17
2023-03-20T00:58:14.658Z,6.77
2023-03-20T01:00:45.040Z,7.27
2023-03-20T01:03:13.238Z,8.47
2023-03-20T01:05:40.949Z,8.87
2023-03-20T01:08:16.872Z,8.97
2023-03-20T01:10:46.639Z,8.53
2023-03-20T01:13:30.932Z,7.33
2023-03-20T01:15:59.610Z,7.03
2023-03-20T01:18:28.473Z,8.70
2023-03-20T01:20:56.260Z,7.57
2023-03-20T01:23:23.626Z,8.37
2023-03-20T01:25:51.923Z,7.33
2023-03-20T01:28:24.369Z,8.07
2023-03-20T01:30:51.694Z,7.00
2023-03-20T01:33:23.146Z,7.20
2023-03-20T01:35:52.223Z,6.60
2023-03-20T01:38:26.313Z,8.60
2023-03-20T01:40:59.193Z,6.70
2023-03-20T01:43:29.444Z,7.17
2023-03-20T01:46:12.146Z,8.23
2023-03-20T01:48:52.651Z,8.23
2023-03-20T01:51:26.804Z,7.87
2023-03-20T01:54:12.279Z,8.87
2023-03-20T01:56:48.425Z,7.87
2023-03-20T01:59:46.831Z,9.73
2023-03-20T02:02:24.620Z,8.57
2023-03-20T02:05:05.533Z,9.10
2023-03-20T02:07:37.376Z,10.30
2023-03-20T02:10:14.739Z,8.90
2023-03-20T02:12:43.729Z,8.57
2023-03-20T02:15:16.484Z,8.93
2023-03-20T02:17:44.756Z,10.13
2023-03-20T02:20:18.330Z,9.57
2023-03-20T02:23:05.851Z,9.80
2023-03-20T02:26:11.857Z,9.53
2023-03-20T02:29:17.172Z,10.03
2023-03-20T02:33:13.851Z,10.93
2023-03-20T02:36:30.169Z,8.27
2023-03-20T02:39:42.901Z,11.83
2023-03-20T02:42:20.048Z,10.23
2023-03-20T02:45:23.041Z,10.90
2023-03-20T02:48:05.653Z,9.13
2023-03-20T02:50:54.352Z,10.93
2023-03-20T02:54:02.386Z,9.33
2023-03-20T02:57:21.074Z,10.27
2023-03-20T03:00:29.243Z,11.07
2023-03-20T03:03:41.904Z,11.37
2023-03-20T03:06:18.023Z,13.40
2023-03-20T03:08:55.122Z,13.37
2023-03-20T03:11:22.724Z,11.23
2023-03-20T03:13:56.260Z,13.33
2023-03-20T03:16:36.235Z,12.93
2023-03-20T03:19:18.958Z,14.63
2023-03-20T03:21:48.488Z,16.83
2023-03-20T03:24:40.836Z,15.83
2023-03-20T03:27:33.083Z,18.87
2023-03-20T03:30:14.907Z,16.90
2023-03-20T03:32:52.315Z,16.80
2023-03-20T03:35:23.977Z,17.77
2023-03-20T03:38:09.396Z,17.43
2023-03-20T03:41:07.881Z,18.20
2023-03-20T03:44:05.989Z,17.77
2023-03-20T03:47:04.040Z,16.67
2023-03-20T03:49:39.798Z,15.97
2023-03-20T03:52:19.624Z,17.27
2023-03-20T03:55:02.993Z,15.47
2023-03-20T03:57:46.444Z,16.33
2023-03-20T04:00:21.178Z,16.70
2023-03-20T04:02:54.897Z,15.93
2023-03-20T04:05:27.976Z,15.63
2023-03-20T04:08:00.075Z,13.37
2023-03-20T04:10:27.968Z,13.80
2023-03-20T04:12:55.421Z,13.13
2023-03-20T04:15:22.742Z,15.40
2023-03-20T04:17:50.782Z,14.43
2023-03-20T04:20:22.156Z,15.47
2023-03-20T04:22:49.405Z,13.33
2023-03-20T04:25:24.431Z,13.73
2023-03-20T04:27:52.205Z,13.70
2023-03-20T04:30:20.177Z,14.40
2023-03-20T04:32:48.246Z,13.90
2023-03-20T04:35:16.349Z,11.53
2023-03-20T04:37:47.331Z,12.53
2023-03-20T04:40:15.585Z,12.20
2023-03-20T04:42:45.696Z,13.47
2023-03-20T04:45:13.096Z,11.57
2023-03-20T04:47:41.205Z,9.80
2023-03-20T04:50:10.546Z,11.43
2023-03-20T04:52:40.746Z,12.23
2023-03-20T04:55:09.321Z,11.80
2023-03-20T04:57:40.268Z,11.07
2023-03-20T05:00:09.198Z,10.80
2023-03-20T05:02:42.238Z,11.33
2023-03-20T05:05:12.208Z,11.20
2023-03-20T05:07:40.034Z,12.73
2023-03-20T05:10:07.815Z,10.93
2023-03-20T05:12:36.300Z,10.60
2023-03-20T05:15:06.352Z,10.63
2023-03-20T05:17:34.031Z,10.90
2023-03-20T05:20:02.373Z,10.23
2023-03-20T05:22:30.182Z,10.50
2023-03-20T05:24:57.438Z,12.07
2023-03-20T05:27:25.286Z,10.97
2023-03-20T05:29:54.134Z,9.43
2023-03-20T05:32:21.835Z,11.37
2023-03-20T05:34:49.514Z,10.97
2023-03-20T05:37:16.989Z,11.17
2023-03-20T05:39:44.510Z,10.90
2023-03-20T05:42:11.920Z,11.27
2023-03-20T05:44:39.228Z,11.80
2023-03-20T05:47:13.451Z,12.53
2023-03-20T05:49:41.887Z,9.97
2023-03-20T05:52:10.413Z,10.87
2023-03-20T05:54:37.832Z,10.57
2023-03-20T05:57:05.185Z,9.03
2023-03-20T05:59:33.632Z,10.13
2023-03-20T06:02:04.538Z,10.87
2023-03-20T06:04:32.417Z,9.83
2023-03-20T06:06:59.887Z,10.67
2023-03-20T06:09:27.413Z,10.60
2023-03-20T06:11:57.782Z,10.73
2023-03-20T06:14:25.967Z,11.77
2023-03-20T06:16:54.309Z,12.90
2023-03-20T06:19:25.400Z,13.47
2023-03-20T06:21:55.890Z,12.13
2023-03-20T06:24:27.893Z,11.77
2023-03-20T06:26:55.498Z,10.30
2023-03-20T06:29:23.452Z,11.97
2023-03-20T06:31:51.348Z,13.03
2023-03-20T06:34:19.100Z,12.13
2023-03-20T06:37:25.009Z,12.60
2023-03-20T06:39:52.428Z,9.83
2023-03-20T06:42:20.062Z,16.43
2023-03-20T06:45:00.765Z,12.40
2023-03-20T06:47:28.261Z,11.30
2023-03-20T06:49:58.647Z,12.67
2023-03-20T06:52:26.282Z,15.93
2023-03-20T06:54:56.161Z,13.27
2023-03-20T06:57:24.737Z,15.17
2023-03-20T06:59:53.538Z,12.23
2023-03-20T07:02:22.217Z,12.63
2023-03-20T07:04:49.822Z,12.40
2023-03-20T07:07:18.205Z,11.17
2023-03-20T07:10:04.928Z,13.30
2023-03-20T07:12:32.842Z,10.40
2023-03-20T07:15:00.408Z,10.57
2023-03-20T07:18:48.286Z,11.53
2023-03-20T07:21:25.705Z,11.90
2023-03-20T07:23:56.619Z,10.83
2023-03-20T07:26:24.445Z,10.73
2023-03-20T07:28:52.379Z,11.10
2023-03-20T07:31:27.555Z,11.93
2023-03-20T07:33:57.814Z,9.13
2023-03-20T07:36:25.697Z,10.50
2023-03-20T07:38:53.500Z,9.03
2023-03-20T07:41:21.926Z,8.90
2023-03-20T07:43:49.650Z,10.57
2023-03-20T07:46:17.778Z,10.40
2023-03-20T07:48:46.819Z,9.60
2023-03-20T07:51:14.218Z,8.80
2023-03-20T07:53:42.362Z,11.00
2023-03-20T07:56:11.021Z,11.00
2023-03-20T07:58:38.508Z,9.13
2023-03-20T08:01:06.595Z,8.67
2023-03-20T08:03:34.746Z,11.57
2023-03-20T08:06:02.170Z,8.73
2023-03-20T08:08:29.637Z,8.03
2023-03-20T08:10:57.610Z,8.87
2023-03-20T08:13:25.099Z,10.13
2023-03-20T08:15:52.659Z,7.83
2023-03-20T08:18:23.044Z,9.60
2023-03-20T08:21:10.321Z,10.90
2023-03-20T08:23:38.051Z,11.70
2023-03-20T08:26:05.639Z,8.00
2023-03-20T08:28:46.684Z,10.13
2023-03-20T08:31:15.539Z,9.43
2023-03-20T08:33:42.976Z,11.20
2023-03-20T08:36:10.900Z,9.00
2023-03-20T08:38:39.917Z,8.30
2023-03-20T08:41:08.345Z,10.60
2023-03-20T08:43:36.981Z,10.03
2023-03-20T08:46:06.191Z,7.60
2023-03-20T08:48:33.769Z,8.83
2023-03-20T08:51:01.829Z,9.57
2023-03-20T08:53:29.656Z,9.17
2023-03-20T08:55:57.024Z,9.00
2023-03-20T08:58:24.506Z,10.23
2023-03-20T09:00:52.521Z,8.00
2023-03-20T09:03:22.337Z,8.10
2023-03-20T09:05:53.186Z,8.47
2023-03-20T09:08:21.091Z,10.83
2023-03-20T09:14:59.836Z,10.63
2023-03-20T09:17:27.642Z,12.53
2023-03-20T09:20:32.497Z,8.63
2023-03-20T09:23:57.573Z,10.10
2023-03-20T09:26:25.447Z,7.67
2023-03-20T09:28:53.061Z,8.30
2023-03-20T09:31:20.898Z,8.43
2023-03-20T09:33:58.808Z,6.97
2023-03-20T09:36:26.707Z,10.57
2023-03-20T09:38:54.439Z,7.20
2023-03-20T09:41:28.155Z,7.53
2023-03-20T09:44:15.988Z,8.60
2023-03-20T09:47:02.658Z,8.73
2023-03-20T09:49:48.737Z,8.13
2023-03-20T09:52:27.469Z,5.77
2023-03-20T09:55:12.241Z,7.40
2023-03-20T09:57:55.109Z,7.10
2023-03-20T10:00:29.432Z,7.37
2023-03-20T10:03:25.622Z,8.00
2023-03-20T10:06:05.471Z,7.00
2023-03-20T10:08:38.929Z,5.53
2023-03-20T10:11:44.306Z,6.80
2023-03-20T10:14:42.821Z,6.17
2023-03-20T10:17:40.658Z,5.47
2023-03-20T10:20:37.157Z,7.67
2023-03-20T10:23:30.969Z,6.07
2023-03-20T10:26:09.925Z,5.60
2023-03-20T10:29:20.779Z,6.20
2023-03-20T10:32:09.064Z,6.10
2023-03-20T10:35:02.807Z,5.83
2023-03-20T10:38:15.063Z,7.57
2023-03-20T10:40:43.897Z,6.50
2023-03-20T10:43:38.818Z,7.73
2023-03-20T10:46:20.035Z,5.60
2023-03-20T10:49:04.682Z,6.10
2023-03-20T10:51:47.813Z,5.80
2023-03-20T10:54:49.551Z,5.40
2023-03-20T10:57:32.362Z,4.57
2023-03-20T11:00:02.004Z,4.83
2023-03-20T11:02:32.638Z,4.47
2023-03-20T11:05:03.676Z,5.67
2023-03-20T11:07:38.601Z,5.87
2023-03-20T11:10:06.164Z,5.90
2023-03-20T11:16:33.366Z,6.23
2023-03-20T11:19:12.025Z,5.83
2023-03-20T11:21:58.201Z,6.43
2023-03-20T11:24:49.017Z,5.57
2023-03-20T11:27:25.234Z,7.13
2023-03-20T11:29:54.467Z,6.53
2023-03-20T11:32:36.949Z,4.33
2023-03-20T11:35:28.628Z,6.00
2023-03-20T11:38:13.232Z,4.83
2023-03-20T11:40:40.823Z,6.20
2023-03-20T11:43:25.427Z,4.87
2023-03-20T11:46:04.653Z,6.17
2023-03-20T11:52:20.757Z,5.73
2023-03-20T11:54:54.981Z,5.07
2023-03-20T11:57:47.352Z,6.30
2023-03-20T12:00:24.868Z,5.97
2023-03-20T12:02:52.775Z,6.83
2023-03-20T12:05:37.418Z,4.93
2023-03-20T12:08:16.291Z,7.47
2023-03-20T12:10:54.821Z,6.77
2023-03-20T12:13:43.936Z,6.77
2023-03-20T12:16:19.685Z,5.20
2023-03-20T12:19:23.212Z,4.43
2023-03-20T12:22:29.682Z,5.80
2023-03-20T12:25:27.316Z,6.13
2023-03-20T12:28:12.241Z,7.57
2023-03-20T12:31:17.157Z,7.17
2023-03-20T12:34:11.819Z,5.50
2023-03-20T12:36:48.850Z,6.80
2023-03-20T12:39:39.009Z,5.47
2023-03-20T12:42:53.217Z,5.73
2023-03-20T12:46:14.557Z,6.10
2023-03-20T12:49:43.486Z,7.07
2023-03-20T12:52:57.501Z,7.33
2023-03-20T12:55:34.127Z,8.00
2023-03-20T12:58:37.510Z,5.97
2023-03-20T13:01:30.055Z,6.90
2023-03-20T13:04:14.541Z,6.67
2023-03-20T13:06:59.881Z,7.60
2023-03-20T13:09:52.450Z,5.47
2023-03-20T13:12:40.596Z,7.83
2023-03-20T13:15:31.874Z,5.30
2023-03-20T13:18:48.126Z,7.83
2023-03-20T13:22:13.666Z,7.43
2023-03-20T13:24:55.728Z,6.67
2023-03-20T13:27:58.024Z,5.37
2023-03-20T13:30:41.165Z,6.73
2023-03-20T13:33:52.547Z,6.97
2023-03-20T13:36:27.471Z,8.93
2023-03-20T13:39:05.151Z,6.37
2023-03-20T13:41:36.171Z,7.70
2023-03-20T13:44:06.716Z,9.93
2023-03-20T13:46:47.783Z,7.90
2023-03-20T13:49:39.208Z,6.37
2023-03-20T13:52:26.154Z,7.10
2023-03-20T13:55:11.822Z,5.10
2023-03-20T13:58:12.088Z,7.23
2023-03-20T14:00:44.984Z,6.63
2023-03-20T14:03:25.473Z,6.43
2023-03-20T14:05:53.454Z,6.70
2023-03-20T14:08:37.099Z,6.63
2023-03-20T14:11:22.648Z,6.87
2023-03-20T14:13:58.622Z,7.63
2023-03-20T14:16:29.488Z,6.80
2023-03-20T14:19:23.374Z,7.70
2023-03-20T14:21:56.030Z,7.33
2023-03-20T14:24:39.329Z,7.80
2023-03-20T14:27:06.992Z,5.67
2023-03-20T14:29:38.550Z,6.40
2023-03-20T14:32:36.145Z,9.20
2023-03-20T14:35:41.373Z,7.37
2023-03-20T14:41:52.631Z,7.13
2023-03-20T14:44:51.064Z,6.80
2023-03-20T14:47:18.684Z,7.87
2023-03-20T14:50:02.675Z,8.57
2023-03-20T14:52:52.089Z,5.50
2023-03-20T14:55:25.340Z,5.07
2023-03-20T14:57:57.396Z,5.90
2023-03-20T15:00:36.061Z,6.60
2023-03-20T15:03:14.885Z,7.57
2023-03-20T15:05:42.972Z,6.67
2023-03-20T15:09:26.366Z,5.40
2023-03-20T15:12:07.395Z,6.23
2023-03-20T15:14:48.375Z,7.97
2023-03-20T15:17:45.531Z,5.60
2023-03-20T15:20:21.031Z,6.23
2023-03-20T15:23:03.001Z,6.33
2023-03-20T15:25:46.894Z,7.17
2023-03-20T15:28:26.972Z,7.13
2023-03-20T15:31:35.268Z,6.57
2023-03-20T15:34:08.921Z,5.90
2023-03-20T15:36:40.444Z,6.83
2023-03-20T15:39:18.049Z,6.27
2023-03-20T15:42:04.062Z,5.83
2023-03-20T15:44:40.941Z,7.87
2023-03-20T15:47:21.109Z,7.30
2023-03-20T15:50:01.141Z,5.13
2023-03-20T15:52:37.214Z,4.83
2023-03-20T15:55:12.578Z,8.83
2023-03-20T15:57:47.626Z,7.13
2023-03-20T16:00:39.607Z,9.00
2023-03-20T16:03:14.595Z,8.27
2023-03-20T16:05:45.911Z,6.57
2023-03-20T16:08:40.211Z,6.10
2023-03-20T16:11:19.175Z,6.53
2023-03-20T16:13:50.492Z,7.00
2023-03-20T16:16:52.944Z,5.90
2023-03-20T16:19:21.350Z,7.23
2023-03-20T16:21:57.357Z,4.40
2023-03-20T16:24:31.897Z,6.57
2023-03-20T16:26:59.482Z,6.80
2023-03-20T16:29:31.574Z,6.03
2023-03-20T16:32:24.916Z,5.77
2023-03-20T16:34:54.568Z,5.70
2023-03-20T16:37:31.367Z,5.73
2023-03-20T16:40:31.127Z,8.73
2023-03-20T16:43:12.801Z,6.30
2023-03-20T16:45:49.695Z,6.00
2023-03-20T16:48:19.572Z,5.80
2023-03-20T16:50:53.358Z,6.50
2023-03-20T16:53:21.174Z,6.20
2023-03-20T16:55:52.219Z,8.90
2023-03-20T16:58:26.194Z,6.70
2023-03-20T17:01:06.607Z,6.37
2023-03-20T17:03:49.580Z,8.30
2023-03-20T17:06:21.101Z,8.73
2023-03-20T17:08:53.307Z,8.70
2023-03-20T17:15:30.705Z,6.30
2023-03-20T17:17:58.119Z,5.57
2023-03-20T17:20:31.603Z,5.60
2023-03-20T17:22:59.331Z,7.67
2023-03-20T17:25:27.404Z,10.23
2023-03-20T17:27:57.423Z,5.73
2023-03-20T17:30:44.286Z,5.90
2023-03-20T17:33:17.327Z,35.93
2023-03-20T17:35:45.199Z,96.70
2023-03-20T17:38:21.971Z,72.23
2023-03-20T17:40:51.526Z,92.50
2023-03-20T17:43:20.950Z,94.97
2023-03-20T17:45:51.632Z,104.13
2023-03-20T17:48:21.246Z,59.20
2023-03-20T17:50:53.434Z,66.93
2023-03-20T17:53:25.168Z,65.57
2023-03-20T17:55:55.561Z,94.47
2023-03-20T17:58:24.407Z,46.30
2023-03-20T18:00:54.397Z,18.83
2023-03-20T18:03:22.698Z,13.73
2023-03-20T18:06:08.002Z,14.47
2023-03-20T18:08:35.584Z,17.73
2023-03-20T18:11:04.488Z,107.70
2023-03-20T18:13:32.547Z,41.53
2023-03-20T18:15:59.964Z,191.27
2023-03-20T18:18:27.536Z,342.67
2023-03-20T18:20:57.452Z,69.70
2023-03-20T18:23:25.117Z,22.47
2023-03-20T18:25:52.550Z,14.37
2023-03-20T18:28:23.478Z,13.70
2023-03-20T18:30:54.366Z,10.27
2023-03-20T18:38:06.616Z,12.43
2023-03-20T18:40:37.574Z,75.80
2023-03-20T18:43:05.320Z,113.03
2023-03-20T18:45:33.043Z,76.20
2023-03-20T18:48:04.166Z,79.10
2023-03-20T18:50:38.528Z,63.63
2023-03-20T18:53:08.224Z,139.33
2023-03-20T18:55:39.822Z,242.97
2023-03-20T18:58:12.749Z,86.33
2023-03-20T19:00:44.356Z,117.60
2023-03-20T19:03:14.818Z,61.57
2023-03-20T19:05:42.693Z,50.17
2023-03-20T19:08:19.173Z,31.63
2023-03-20T19:10:47.642Z,19.47
2023-03-20T19:13:18.711Z,14.23
2023-03-20T19:15:46.873Z,26.80
2023-03-20T19:18:24.265Z,100.53
2023-03-20T19:20:55.811Z,188.40
2023-03-20T19:23:29.057Z,117.77
2023-03-20T19:25:56.942Z,165.37
2023-03-20T19:28:37.756Z,100.70
2023-03-20T19:31:08.183Z,44.13
2023-03-20T19:33:35.901Z,80.90
2023-03-20T19:36:06.776Z,27.70
2023-03-20T19:43:00.837Z,20.53
2023-03-20T19:45:58.032Z,28.87
2023-03-20T19:49:42.206Z,22.40
2023-03-20T19:52:28.799Z,57.83
2023-03-20T19:55:02.670Z,30.90
2023-03-20T19:57:33.156Z,26.47
2023-03-20T20:03:07.681Z,19.50
2023-03-20T20:05:40.450Z,18.90
2023-03-20T20:08:28.021Z,17.87
2023-03-20T20:10:57.322Z,22.90
2023-03-20T20:13:30.830Z,29.70
2023-03-20T20:15:58.590Z,12.67
2023-03-20T20:18:30.950Z,12.90
2023-03-20T20:21:59.897Z,9.13
2023-03-20T20:23:46.777Z,11.13
2023-03-20T20:26:14.244Z,9.40
2023-03-20T20:28:55.490Z,11.17
2023-03-20T20:31:31.879Z,7.43
2023-03-20T20:34:45.285Z,10.10
2023-03-20T20:37:51.085Z,7.30
2023-03-20T20:39:34.342Z,8.83
2023-03-20T20:42:01.906Z,11.03
2023-03-20T20:44:29.540Z,10.93
2023-03-20T20:47:01.937Z,10.33
2023-03-20T20:49:29.702Z,8.90
2023-03-20T20:51:58.636Z,11.73
2023-03-20T20:54:27.840Z,9.80
2023-03-20T20:56:56.364Z,11.30
2023-03-20T20:59:24.091Z,8.53
2023-03-20T21:01:53.721Z,12.17
2023-03-20T21:04:21.283Z,13.30
2023-03-20T21:07:09.776Z,10.30
2023-03-20T21:09:36.484Z,10.23
2023-03-20T21:12:04.803Z,11.63
2023-03-20T21:14:32.480Z,11.37
2023-03-20T21:17:02.789Z,9.53
2023-03-20T21:19:50.364Z,8.93
2023-03-20T21:22:17.873Z,11.07
2023-03-20T21:24:45.367Z,10.40
2023-03-20T21:27:17.237Z,8.63
2023-03-20T21:29:47.747Z,12.27
2023-03-20T21:32:20.229Z,13.87
2023-03-20T21:34:49.736Z,12.63
2023-03-20T21:38:30.093Z,9.47
2023-03-20T21:40:09.220Z,9.70
2023-03-20T21:42:37.191Z,11.93
2023-03-20T21:58:12.855Z,10.10
2023-03-20T22:03:11.002Z,12.20
2023-03-20T22:20:03.602Z,10.60
2023-03-20T22:25:41.479Z,10.63
2023-03-20T22:28:22.484Z,10.77
2023-03-20T22:37:08.795Z,13.03
2023-03-20T22:42:43.897Z,13.13
2023-03-20T22:44:58.880Z,10.57
2023-03-20T22:47:27.060Z,12.60
2023-03-20T22:49:54.572Z,12.67
2023-03-20T22:52:34.748Z,11.67
2023-03-20T22:55:10.239Z,9.53
2023-03-20T22:57:45.514Z,12.50
2023-03-20T23:00:22.730Z,11.13
2023-03-20T23:02:52.890Z,12.93
2023-03-20T23:05:20.535Z,10.97
2023-03-20T23:07:48.089Z,10.87
2023-03-20T23:10:15.508Z,10.37
2023-03-20T23:12:44.191Z,12.47
2023-03-20T23:15:12.121Z,11.07
2023-03-20T23:17:39.797Z,11.27
2023-03-20T23:20:13.338Z,11.93
2023-03-20T23:22:50.866Z,10.70
2023-03-20T23:25:36.052Z,10.03
2023-03-20T23:28:06.648Z,10.73
2023-03-20T23:30:44.267Z,9.20
2023-03-20T23:33:15.929Z,10.80
2023-03-20T23:35:43.656Z,9.47
2023-03-20T23:38:11.533Z,7.77
2023-03-20T23:40:39.066Z,10.27
2023-03-20T23:43:06.760Z,10.93
2023-03-20T23:45:34.234Z,9.93
2023-03-20T23:48:04.912Z,9.07
2023-03-20T23:50:46.087Z,8.33
2023-03-20T23:53:21.097Z,10.50
2023-03-20T23:55:56.408Z,7.70
2023-03-20T23:58:27.495Z,9.40
